createdAt,value
2018-09-23T00:01:55.967Z,99920.62
2018-09-23T00:04:24.731Z,99912.83
2018-09-23T00:06:53.311Z,99903.61
2018-09-23T00:09:27.444Z,99891.50
2018-09-23T00:11:56.146Z,99890.20
2018-09-23T00:14:24.905Z,99889.08
2018-09-23T00:16:53.725Z,99884.76
2018-09-23T00:19:22.509Z,99887.00
2018-09-23T00:21:51.364Z,99875.25
2018-09-23T00:24:20.102Z,99871.41
2018-09-23T00:26:48.944Z,99858.70
2018-09-23T00:29:22.625Z,99853.84
2018-09-23T00:31:51.298Z,99838.45
2018-09-23T00:34:19.894Z,99828.00
2018-09-23T00:36:48.774Z,99819.00
2018-09-23T00:39:17.503Z,99807.55
2018-09-23T00:41:46.309Z,99815.05
2018-09-23T00:44:14.766Z,99803.89
2018-09-23T00:46:43.358Z,99802.63
2018-09-23T00:49:12.007Z,99799.97
2018-09-23T00:51:40.613Z,99785.98
2018-09-23T00:54:09.150Z,99798.76
2018-09-23T00:56:39.213Z,99786.89
2018-09-23T00:59:07.754Z,99777.16
2018-09-23T01:01:36.243Z,99775.84
2018-09-23T01:04:04.735Z,99768.70
2018-09-23T01:06:33.259Z,99778.28
2018-09-23T01:09:01.733Z,99788.73
2018-09-23T01:11:30.242Z,99782.15
2018-09-23T01:13:58.834Z,99780.29
2018-09-23T01:16:27.323Z,99767.86
2018-09-23T01:18:55.878Z,99769.56
2018-09-23T01:21:24.414Z,99780.01
2018-09-23T01:23:52.883Z,99779.90
2018-09-23T01:26:21.475Z,99772.79
2018-09-23T01:28:50.042Z,99768.42
2018-09-23T01:31:18.539Z,99769.31
2018-09-23T01:33:47.074Z,99764.16
2018-09-23T01:36:15.601Z,99756.77
2018-09-23T01:38:44.063Z,99752.88
2018-09-23T01:41:12.534Z,99792.83
2018-09-23T01:43:41.002Z,99762.97
2018-09-23T01:46:09.471Z,99755.89
2018-09-23T01:48:37.979Z,99757.59
2018-09-23T01:51:06.788Z,99753.23
2018-09-23T01:53:35.314Z,99743.54
2018-09-23T01:56:03.929Z,99737.40
2018-09-23T01:58:32.458Z,99720.69
2018-09-23T02:01:00.986Z,99706.66
2018-09-23T02:03:29.514Z,99713.92
2018-09-23T02:05:58.079Z,99705.23
2018-09-23T02:08:26.590Z,99709.18
2018-09-23T02:10:55.166Z,99709.97
2018-09-23T02:13:23.642Z,99705.58
2018-09-23T02:15:52.120Z,99697.21
2018-09-23T02:18:20.628Z,99690.10
2018-09-23T02:20:49.090Z,99683.95
2018-09-23T02:23:17.563Z,99679.50
2018-09-23T02:25:46.103Z,99671.98
2018-09-23T02:28:14.578Z,99667.03
2018-09-23T02:30:43.234Z,99666.50
2018-09-23T02:35:59.495Z,99652.11
2018-09-23T02:38:28.026Z,99656.38
2018-09-23T02:40:56.542Z,99656.22
2018-09-23T02:43:25.016Z,99649.53
2018-09-23T02:45:53.491Z,99652.14
2018-09-23T02:48:21.966Z,99655.59
2018-09-23T02:50:50.463Z,99651.95
2018-09-23T02:53:19.212Z,99652.32
2018-09-23T02:55:48.021Z,99634.28
2018-09-23T02:58:17.228Z,99632.45
2018-09-23T03:00:46.324Z,99624.04
2018-09-23T03:03:15.723Z,99615.69
2018-09-23T03:05:45.420Z,99621.34
2018-09-23T03:08:14.599Z,99622.18
2018-09-23T03:10:43.519Z,99619.51
2018-09-23T03:13:12.405Z,99618.63
2018-09-23T03:15:41.297Z,99612.92
2018-09-23T03:20:50.483Z,99594.47
2018-09-23T03:23:19.376Z,99598.38
2018-09-23T03:25:48.223Z,99589.16
2018-09-23T03:28:17.213Z,99585.27
2018-09-23T03:30:46.587Z,99586.69
2018-09-23T03:33:15.472Z,99585.38
2018-09-23T03:35:44.337Z,99576.59
2018-09-23T03:38:13.241Z,99577.47
2018-09-23T03:40:42.198Z,99570.84
2018-09-23T03:43:11.176Z,99568.54
2018-09-23T03:45:39.949Z,99564.95
2018-09-23T03:48:08.832Z,99559.64
2018-09-23T03:50:37.683Z,99551.27
2018-09-23T03:53:06.309Z,99544.63
2018-09-23T03:55:34.814Z,99533.20
2018-09-23T03:58:03.943Z,99547.67
2018-09-23T04:00:32.738Z,99545.00
2018-09-23T04:03:05.253Z,99536.63
2018-09-23T04:05:34.223Z,99522.11
2018-09-23T04:08:03.048Z,99509.81
2018-09-23T04:10:31.903Z,99503.14
2018-09-23T04:13:01.459Z,99499.27
2018-09-23T04:15:30.131Z,99499.11
2018-09-23T04:17:59.071Z,99495.70
2018-09-23T04:20:28.080Z,99495.85
2018-09-23T04:22:57.160Z,99495.45
2018-09-23T04:25:25.947Z,99479.62
2018-09-23T04:27:54.863Z,99476.12
2018-09-23T04:30:23.680Z,99457.73
2018-09-23T04:32:52.623Z,99461.17
2018-09-23T04:35:21.845Z,99459.81
2018-09-23T04:37:50.766Z,99461.98
2018-09-23T04:40:19.613Z,99453.67
2018-09-23T04:42:48.404Z,99400.22
2018-09-23T04:45:17.337Z,99440.12
2018-09-23T04:47:46.247Z,99448.91
2018-09-23T04:50:15.114Z,99445.76
2018-09-23T04:52:44.111Z,99445.76
2018-09-23T04:55:13.077Z,99440.45
2018-09-23T04:57:41.948Z,99439.45
2018-09-23T05:00:10.892Z,99443.41
2018-09-23T05:02:39.744Z,99155.14
2018-09-23T05:05:08.527Z,99446.02
2018-09-23T05:07:37.455Z,99454.36
2018-09-23T05:10:06.263Z,99466.23
2018-09-23T05:12:35.133Z,99463.52
2018-09-23T05:15:03.675Z,99452.89
2018-09-23T05:17:32.466Z,99450.26
2018-09-23T05:20:00.943Z,99453.41
2018-09-23T05:22:29.569Z,99435.98
2018-09-23T05:24:58.550Z,99436.49
2018-09-23T05:27:27.147Z,99442.35
2018-09-23T05:29:55.657Z,99445.35
2018-09-23T05:32:24.131Z,99445.31
2018-09-23T05:34:52.660Z,99428.98
2018-09-23T05:37:21.082Z,99426.75
2018-09-23T05:39:49.675Z,99423.64
2018-09-23T05:42:18.188Z,99413.56
2018-09-23T05:44:46.732Z,99409.53
2018-09-23T05:47:15.262Z,99401.59
2018-09-23T05:49:43.833Z,99411.17
2018-09-23T05:52:12.594Z,99418.06
2018-09-23T05:54:41.115Z,99423.81
2018-09-23T05:57:09.624Z,99423.30
2018-09-23T05:59:38.146Z,99421.53
2018-09-23T06:02:06.702Z,99415.74
2018-09-23T06:04:35.300Z,99403.00
2018-09-23T06:07:04.133Z,99396.92
2018-09-23T06:09:32.740Z,99392.09
2018-09-23T06:12:01.315Z,99390.28
2018-09-23T06:14:29.939Z,99385.02
2018-09-23T06:16:58.589Z,99380.22
2018-09-23T06:19:27.393Z,99374.91
2018-09-23T06:21:56.115Z,99383.73
2018-09-23T06:24:24.753Z,99391.25
2018-09-23T06:26:53.401Z,99390.52
2018-09-23T06:29:22.035Z,99396.56
2018-09-23T06:31:50.818Z,99398.51
2018-09-23T06:34:19.711Z,99393.23
2018-09-23T06:36:48.552Z,99383.48
2018-09-23T06:39:17.293Z,99380.22
2018-09-23T06:41:46.184Z,99392.05
2018-09-23T06:44:14.772Z,99392.92
2018-09-23T06:46:43.462Z,99388.56
2018-09-23T06:49:12.249Z,99380.94
2018-09-23T06:51:41.218Z,99371.55
2018-09-23T06:54:10.119Z,99369.79
2018-09-23T06:56:38.907Z,99362.28
2018-09-23T06:59:07.793Z,99360.84
2018-09-23T07:04:14.999Z,99370.43
2018-09-23T07:06:43.927Z,99375.75
2018-09-23T07:09:12.916Z,99373.47
2018-09-23T07:11:41.635Z,99373.83
2018-09-23T07:14:10.608Z,99368.87
2018-09-23T07:16:39.804Z,99367.91
2018-09-23T07:19:08.660Z,99364.59
2018-09-23T07:21:37.338Z,99363.11
2018-09-23T07:24:05.981Z,99358.98
2018-09-23T07:26:34.448Z,99356.26
2018-09-23T07:29:03.082Z,99355.91
2018-09-23T07:31:32.205Z,99357.62
2018-09-23T07:34:01.254Z,99354.55
2018-09-23T07:36:29.877Z,99354.47
2018-09-23T07:38:58.499Z,99348.74
2018-09-23T07:41:27.041Z,99344.22
2018-09-23T07:43:55.980Z,99352.94
2018-09-23T07:46:24.745Z,99348.09
2018-09-23T07:48:53.342Z,99351.09
2018-09-23T07:51:22.008Z,99348.97
2018-09-23T07:53:50.977Z,99337.49
2018-09-23T07:56:20.101Z,99334.73
2018-09-23T07:58:49.170Z,99331.13
2018-09-23T08:01:18.373Z,99325.32
2018-09-23T08:03:47.171Z,99313.84
2018-09-23T08:06:15.913Z,99316.88
2018-09-23T08:08:44.799Z,99320.44
2018-09-23T08:11:13.999Z,99314.23
2018-09-23T08:13:43.049Z,99311.55
2018-09-23T08:16:11.752Z,99313.62
2018-09-23T08:18:40.343Z,99307.89
2018-09-23T08:21:09.331Z,99309.48
2018-09-23T08:23:38.238Z,99307.59
2018-09-23T08:26:06.831Z,99316.70
2018-09-23T08:28:35.263Z,99196.48
2018-09-23T08:31:03.779Z,99321.41
2018-09-23T08:33:32.270Z,99315.50
2018-09-23T08:36:01.312Z,99307.84
2018-09-23T08:38:29.816Z,98684.33
2018-09-23T08:40:58.343Z,99296.69
2018-09-23T08:43:26.998Z,99291.63
2018-09-23T08:45:55.467Z,99307.56
2018-09-23T08:48:23.892Z,99284.52
2018-09-23T08:50:52.395Z,99287.90
2018-09-23T08:53:20.856Z,99290.36
2018-09-23T08:55:49.391Z,99287.34
2018-09-23T08:58:17.919Z,99276.97
2018-09-23T09:00:46.418Z,99267.00
2018-09-23T09:03:14.864Z,99264.95
2018-09-23T09:05:43.416Z,99262.70
2018-09-23T09:08:11.826Z,99258.69
2018-09-23T09:10:40.391Z,99254.07
2018-09-23T09:13:10.161Z,99299.70
2018-09-23T09:15:38.781Z,99225.99
2018-09-23T09:18:07.952Z,99228.68
2018-09-23T09:20:41.602Z,99233.50
2018-09-23T09:23:10.277Z,99224.37
2018-09-23T09:25:38.910Z,99218.80
2018-09-23T09:28:10.574Z,99216.31
2018-09-23T09:30:40.417Z,99217.63
2018-09-23T09:33:09.065Z,99220.62
2018-09-23T09:35:37.585Z,99208.06
2018-09-23T09:38:06.180Z,99208.20
2018-09-23T09:40:34.956Z,99205.38
2018-09-23T09:43:03.494Z,99196.34
2018-09-23T09:45:31.968Z,99186.56
2018-09-23T09:48:00.511Z,99177.06
2018-09-23T09:50:29.220Z,99181.81
2018-09-23T09:52:57.825Z,99183.33
2018-09-23T09:55:26.331Z,99169.95
2018-09-23T09:57:54.914Z,99161.85
2018-09-23T10:00:28.622Z,99145.78
2018-09-23T10:02:57.192Z,99135.59
2018-09-23T10:05:25.943Z,99130.93
2018-09-23T10:07:54.516Z,99126.16
2018-09-23T10:10:23.071Z,99117.95
2018-09-23T10:12:51.897Z,99107.58
2018-09-23T10:15:20.479Z,99090.55
2018-09-23T10:17:49.108Z,99081.14
2018-09-23T10:20:18.122Z,99065.42
2018-09-23T10:22:46.809Z,99069.69
2018-09-23T10:25:15.461Z,99078.52
2018-09-23T10:27:43.940Z,99077.55
2018-09-23T10:30:12.449Z,99086.63
2018-09-23T10:32:40.927Z,99084.58
2018-09-23T10:35:09.481Z,99085.41
2018-09-23T10:37:37.920Z,99074.94
2018-09-23T10:40:06.394Z,99074.51
2018-09-23T10:42:34.881Z,99065.55
2018-09-23T10:45:03.363Z,99059.40
2018-09-23T10:47:31.951Z,99075.40
2018-09-23T10:50:00.394Z,99090.52
2018-09-23T10:52:28.816Z,99116.89
2018-09-23T10:54:57.232Z,99124.34
2018-09-23T10:57:25.735Z,99118.94
2018-09-23T10:59:54.224Z,99125.46
2018-09-23T11:02:22.754Z,99133.05
2018-09-23T11:04:51.207Z,99124.67
2018-09-23T11:07:19.750Z,99126.92
2018-09-23T11:09:48.169Z,99133.19
2018-09-23T11:12:16.717Z,99098.00
2018-09-23T11:14:45.136Z,99052.75
2018-09-23T11:17:13.722Z,99035.63
2018-09-23T11:19:42.209Z,99048.98
2018-09-23T11:22:10.679Z,99026.23
2018-09-23T11:24:39.210Z,99024.71
2018-09-23T11:27:07.724Z,99028.02
2018-09-23T11:29:36.325Z,99033.43
2018-09-23T11:32:04.795Z,99032.95
2018-09-23T11:34:33.279Z,99016.16
2018-09-23T11:37:01.776Z,98975.28
2018-09-23T11:39:30.327Z,98964.84
2018-09-23T11:41:58.866Z,98946.88
2018-09-23T11:44:27.388Z,98971.05
2018-09-23T11:46:55.947Z,98948.93
2018-09-23T11:49:24.625Z,98954.27
2018-09-23T11:51:53.283Z,98955.59
2018-09-23T11:54:21.725Z,98886.92
2018-09-23T11:56:50.740Z,98867.48
2018-09-23T11:59:19.235Z,98875.84
2018-09-23T12:01:47.758Z,98887.16
2018-09-23T12:04:16.285Z,98939.27
2018-09-23T12:06:44.855Z,98996.84
2018-09-23T12:09:14.079Z,98999.97
2018-09-23T12:11:42.631Z,99000.59
2018-09-23T12:14:12.638Z,99011.98
2018-09-23T12:16:41.461Z,99012.47
2018-09-23T12:19:10.093Z,99018.78
2018-09-23T12:21:38.726Z,98989.05
2018-09-23T12:24:07.268Z,98962.85
2018-09-23T12:26:35.963Z,98960.32
2018-09-23T12:29:04.564Z,98972.34
2018-09-23T12:31:33.145Z,98987.00
2018-09-23T12:34:01.697Z,98993.98
2018-09-23T12:36:30.271Z,98997.55
2018-09-23T12:38:58.915Z,99020.38
2018-09-23T12:41:27.467Z,99037.45
2018-09-23T12:43:56.148Z,99056.84
2018-09-23T12:46:24.916Z,99078.49
2018-09-23T12:48:53.461Z,99067.94
2018-09-23T12:51:21.966Z,99076.97
2018-09-23T12:53:50.504Z,99074.47
2018-09-23T12:56:19.159Z,99061.56
2018-09-23T12:58:47.651Z,99052.41
2018-09-23T13:01:16.164Z,99068.08
2018-09-23T13:03:44.685Z,99062.33
2018-09-23T13:06:13.135Z,99086.25
2018-09-23T13:08:41.716Z,99103.97
2018-09-23T13:11:10.479Z,99108.55
2018-09-23T13:13:39.123Z,99097.91
2018-09-23T13:16:07.840Z,99072.16
2018-09-23T13:18:36.536Z,99060.77
2018-09-23T13:21:05.046Z,99043.12
2018-09-23T13:23:33.592Z,99048.27
2018-09-23T13:26:02.043Z,99067.11
2018-09-23T13:31:14.842Z,99088.72
2018-09-23T13:33:43.373Z,99049.36
2018-09-23T13:36:11.874Z,99050.36
2018-09-23T13:38:40.426Z,99070.13
2018-09-23T13:41:09.124Z,99040.34
2018-09-23T13:43:37.605Z,99061.70
2018-09-23T13:46:06.148Z,99061.09
2018-09-23T13:48:34.681Z,99056.73
2018-09-23T13:51:03.214Z,99020.94
2018-09-23T13:53:31.751Z,98990.29
2018-09-23T13:56:00.225Z,99018.41
2018-09-23T13:58:28.861Z,99051.77
2018-09-23T14:00:57.284Z,99101.02
2018-09-23T14:03:25.823Z,99112.30
2018-09-23T14:05:54.380Z,99124.52
2018-09-23T14:08:22.925Z,99143.01
2018-09-23T14:10:51.432Z,99185.34
2018-09-23T14:13:19.962Z,99180.06
2018-09-23T14:15:49.535Z,99198.43
2018-09-23T14:18:18.142Z,99176.55
2018-09-23T14:20:46.675Z,99193.08
2018-09-23T14:23:15.248Z,99190.09
2018-09-23T14:25:44.000Z,99177.79
2018-09-23T14:28:12.583Z,99186.77
2018-09-23T14:30:42.346Z,99200.34
2018-09-23T14:33:13.665Z,99202.17
2018-09-23T14:35:42.365Z,99195.47
2018-09-23T14:38:10.846Z,99208.89
2018-09-23T14:40:39.369Z,99228.05
2018-09-23T14:43:08.157Z,99225.73
2018-09-23T14:45:36.658Z,99235.47
2018-09-23T14:48:05.312Z,99232.84
2018-09-23T14:50:34.157Z,99246.81
2018-09-23T14:53:02.688Z,99257.72
2018-09-23T14:55:31.205Z,99271.05
2018-09-23T14:57:59.802Z,99289.20
2018-09-23T15:00:28.333Z,99291.83
2018-09-23T15:03:02.456Z,99299.33
2018-09-23T15:05:31.359Z,99294.54
2018-09-23T15:07:59.923Z,99303.77
2018-09-23T15:10:28.569Z,99303.69
2018-09-23T15:12:57.556Z,99295.71
2018-09-23T15:15:30.164Z,99313.71
2018-09-23T15:17:59.864Z,99318.06
2018-09-23T15:20:28.939Z,99312.58
2018-09-23T15:22:58.448Z,99322.45
2018-09-23T15:25:36.011Z,99330.50
2018-09-23T15:41:13.858Z,99373.86
2018-09-23T15:43:42.491Z,99375.33
2018-09-23T15:46:11.011Z,99390.91
2018-09-23T15:48:39.626Z,99384.06
2018-09-23T15:51:08.156Z,99394.00
2018-09-23T15:53:36.739Z,99414.89
2018-09-23T15:56:05.203Z,99427.01
2018-09-23T15:58:33.849Z,99433.34
2018-09-23T16:01:02.408Z,99441.25
2018-09-23T16:03:30.989Z,99352.50
2018-09-23T16:05:59.457Z,99463.09
2018-09-23T16:08:27.950Z,99474.16
2018-09-23T16:10:56.432Z,99460.14
2018-09-23T16:13:24.946Z,99470.27
2018-09-23T16:15:53.390Z,99483.95
2018-09-23T16:18:21.846Z,99490.71
2018-09-23T16:20:50.312Z,99506.73
2018-09-23T16:23:18.796Z,99522.25
2018-09-23T16:25:47.335Z,99534.30
2018-09-23T16:28:15.788Z,99547.88
2018-09-23T16:30:44.443Z,99549.20
2018-09-23T16:33:13.205Z,99550.89
2018-09-23T16:35:41.655Z,99569.63
2018-09-23T16:38:10.157Z,99583.72
2018-09-23T16:40:38.684Z,99591.55
2018-09-23T16:43:07.318Z,99602.90
2018-09-23T16:45:35.798Z,99618.32
2018-09-23T16:48:04.291Z,99656.13
2018-09-23T16:50:32.828Z,99642.59
2018-09-23T16:53:01.279Z,99647.00
2018-09-23T16:55:29.878Z,99657.16
2018-09-23T16:57:58.592Z,99665.66
2018-09-23T17:00:27.422Z,99672.73
2018-09-23T17:02:55.999Z,99689.38
2018-09-23T17:05:24.556Z,99695.91
2018-09-23T17:07:53.068Z,99711.25
2018-09-23T17:10:21.594Z,99717.80
2018-09-23T17:12:50.175Z,99730.09
2018-09-23T17:15:18.641Z,99738.45
2018-09-23T17:17:47.088Z,99749.81
2018-09-23T17:20:15.678Z,99748.08
2018-09-23T17:22:44.216Z,99754.73
2018-09-23T17:25:12.742Z,99763.95
2018-09-23T17:27:41.152Z,99781.52
2018-09-23T17:30:09.612Z,99793.83
2018-09-23T17:32:38.080Z,99804.30
2018-09-23T17:35:06.551Z,99818.27
2018-09-23T17:37:34.944Z,99823.52
2018-09-23T17:40:03.342Z,99831.82
2018-09-23T17:42:31.869Z,99844.48
2018-09-23T17:45:00.304Z,99851.92
2018-09-23T17:47:28.883Z,99853.61
2018-09-23T17:49:57.544Z,99866.34
2018-09-23T17:52:26.094Z,99866.39
2018-09-23T17:54:54.532Z,99869.45
2018-09-23T17:57:22.989Z,99854.84
2018-09-23T17:59:52.465Z,99891.79
2018-09-23T18:02:21.153Z,99897.48
2018-09-23T18:04:49.703Z,99906.69
2018-09-23T18:07:18.287Z,99918.50
2018-09-23T18:09:46.845Z,99932.42
2018-09-23T18:12:15.332Z,99936.81
2018-09-23T18:14:43.932Z,99943.33
2018-09-23T18:17:13.027Z,99958.65
2018-09-23T18:19:41.866Z,99964.79
2018-09-23T18:22:10.469Z,99977.59
2018-09-23T18:24:38.975Z,99981.56
2018-09-23T18:27:07.540Z,99991.19
2018-09-23T18:29:36.056Z,99997.82
2018-09-23T18:32:04.584Z,100006.59
2018-09-23T18:34:33.156Z,100014.08
2018-09-23T18:37:01.923Z,100018.92
2018-09-23T18:39:30.470Z,100029.45
2018-09-23T18:41:59.275Z,100035.61
2018-09-23T18:44:28.109Z,100059.77
2018-09-23T18:46:56.693Z,100058.05
2018-09-23T18:49:25.396Z,100065.53
2018-09-23T18:51:53.962Z,100074.31
2018-09-23T18:54:27.744Z,100093.19
2018-09-23T18:56:56.302Z,100091.45
2018-09-23T18:59:24.847Z,100093.66
2018-09-23T19:01:53.310Z,100110.33
2018-09-23T19:04:21.959Z,100117.75
2018-09-23T19:06:50.511Z,100123.48
2018-09-23T19:09:19.053Z,100124.32
2018-09-23T19:11:47.764Z,100134.36
2018-09-23T19:14:16.321Z,100136.11
2018-09-23T19:16:44.875Z,100138.31
2018-09-23T19:19:13.400Z,100155.82
2018-09-23T19:21:42.102Z,100161.50
2018-09-23T19:24:10.768Z,100160.66
2018-09-23T19:26:39.506Z,100164.18
2018-09-23T19:29:08.039Z,100163.29
2018-09-23T19:31:36.718Z,100177.33
2018-09-23T19:34:05.342Z,100180.86
2018-09-23T19:36:34.003Z,100185.70
2018-09-23T19:39:02.611Z,100194.02
2018-09-23T19:41:31.106Z,100212.42
2018-09-23T19:43:59.603Z,100227.77
2018-09-23T19:46:28.144Z,100224.72
2018-09-23T19:48:56.670Z,100231.71
2018-09-23T19:51:25.164Z,100231.28
2018-09-23T19:53:53.695Z,100246.59
2018-09-23T19:56:22.256Z,100261.85
2018-09-23T19:58:50.770Z,100261.43
2018-09-23T20:01:19.246Z,100271.95
2018-09-23T20:03:47.890Z,100269.78
2018-09-23T20:06:16.448Z,100281.16
2018-09-23T20:08:44.995Z,100284.24
2018-09-23T20:11:13.674Z,100296.09
2018-09-23T20:13:42.301Z,100309.19
2018-09-23T20:16:10.982Z,100323.22
2018-09-23T20:18:39.612Z,100314.48
2018-09-23T20:21:08.171Z,100323.65
2018-09-23T20:23:36.731Z,100321.91
2018-09-23T20:26:05.207Z,100331.58
2018-09-23T20:28:33.640Z,100332.00
2018-09-23T20:31:02.213Z,100340.32
2018-09-23T20:33:30.867Z,100335.07
2018-09-23T20:35:59.516Z,100343.04
2018-09-23T20:38:30.116Z,100363.19
2018-09-23T20:40:58.796Z,100355.77
2018-09-23T20:43:28.355Z,100353.61
2018-09-23T20:45:58.659Z,100365.43
2018-09-23T20:48:28.955Z,100364.55
2018-09-23T20:50:57.946Z,100371.12
2018-09-23T20:53:26.960Z,100375.10
2018-09-23T20:55:56.535Z,100378.63
2018-09-23T20:58:25.458Z,100390.03
2018-09-23T21:00:54.337Z,100397.49
2018-09-23T21:03:22.972Z,100399.27
2018-09-23T21:05:51.923Z,100429.97
2018-09-23T21:08:20.698Z,100404.14
2018-09-23T21:10:49.693Z,100416.00
2018-09-23T21:13:18.510Z,100421.30
2018-09-23T21:15:47.163Z,100438.41
2018-09-23T21:18:15.834Z,100446.75
2018-09-23T21:20:44.431Z,100452.50
2018-09-23T21:23:13.030Z,100470.46
2018-09-23T21:25:41.706Z,100470.03
2018-09-23T21:28:10.453Z,100470.03
2018-09-23T21:30:39.012Z,100472.66
2018-09-23T21:33:07.691Z,100470.48
2018-09-23T21:35:36.363Z,100477.48
2018-09-23T21:38:05.043Z,100487.11
2018-09-23T21:40:33.914Z,100486.28
2018-09-23T21:43:02.602Z,100494.55
2018-09-23T21:45:31.279Z,100509.47
2018-09-23T21:47:59.828Z,100513.45
2018-09-23T21:50:28.460Z,100519.55
2018-09-23T21:52:56.997Z,100522.61
2018-09-23T21:55:25.551Z,100526.13
2018-09-23T21:57:54.135Z,100530.94
2018-09-23T22:00:22.841Z,100526.14
2018-09-23T22:02:51.503Z,100549.39
2018-09-23T22:05:20.071Z,100552.88
2018-09-23T22:07:48.599Z,100556.84
2018-09-23T22:10:17.231Z,100558.16
2018-09-23T22:12:45.817Z,100563.88
2018-09-23T22:15:20.164Z,100571.77
2018-09-23T22:17:48.720Z,100572.21
2018-09-23T22:20:17.423Z,100580.94
2018-09-23T22:22:45.978Z,100585.78
2018-09-23T22:25:14.483Z,100584.45
2018-09-23T22:27:43.036Z,100590.16
2018-09-23T22:30:11.699Z,100593.22
2018-09-23T22:32:40.173Z,100563.49
2018-09-23T22:35:08.784Z,100599.37
2018-09-23T22:37:37.683Z,100601.11
2018-09-23T22:40:07.581Z,100615.95
2018-09-23T22:42:37.342Z,100619.91
2018-09-23T22:45:06.470Z,100625.59
2018-09-23T22:47:35.275Z,100628.20
2018-09-23T22:50:04.360Z,100632.13
2018-09-23T22:52:33.118Z,100645.25
2018-09-23T22:55:01.649Z,100651.38
2018-09-23T22:57:30.475Z,100659.70
2018-09-23T22:59:59.179Z,100660.13
2018-09-23T23:02:27.819Z,100671.50
2018-09-23T23:04:56.505Z,100678.93
2018-09-23T23:07:25.072Z,100678.90
2018-09-23T23:09:53.682Z,100683.71
2018-09-23T23:12:22.289Z,100690.25
2018-09-23T23:14:50.977Z,100697.25
2018-09-23T23:17:19.595Z,100700.33
2018-09-23T23:19:48.140Z,100706.44
2018-09-23T23:22:16.700Z,100703.84
2018-09-23T23:24:45.274Z,100714.33
2018-09-23T23:27:13.943Z,100713.88
2018-09-23T23:29:42.467Z,100712.56
2018-09-23T23:32:11.064Z,100721.32
2018-09-23T23:34:39.590Z,100723.92
2018-09-23T23:37:08.171Z,100727.42
2018-09-23T23:39:36.703Z,100737.92
2018-09-23T23:42:05.373Z,100749.70
2018-09-23T23:44:34.005Z,100754.97
2018-09-23T23:47:02.615Z,100758.88
2018-09-23T23:49:31.335Z,100758.45
2018-09-23T23:51:59.872Z,100768.48
2018-09-23T23:54:28.497Z,100777.64
2018-09-23T23:56:57.108Z,100782.43
2018-09-23T23:59:25.657Z,100785.50
